createdAt,value
2023-05-23T00:01:08.562Z,4.23
2023-05-23T00:03:36.478Z,4.03
2023-05-23T00:06:04.629Z,4.20
2023-05-23T00:08:31.883Z,5.60
2023-05-23T00:10:59.204Z,5.27
2023-05-23T00:13:26.929Z,4.83
2023-05-23T00:15:54.300Z,4.33
2023-05-23T00:18:21.635Z,4.37
2023-05-23T00:20:48.900Z,4.10
2023-05-23T00:23:19.401Z,6.17
2023-05-23T00:25:52.727Z,4.27
2023-05-23T00:28:39.094Z,6.57
2023-05-23T00:31:06.495Z,5.13
2023-05-23T00:33:36.369Z,4.20
2023-05-23T00:36:03.883Z,4.80
2023-05-23T00:38:31.404Z,4.43
2023-05-23T00:40:59.155Z,5.70
2023-05-23T00:43:26.547Z,5.73
2023-05-23T00:45:53.812Z,8.00
2023-05-23T00:48:21.086Z,6.50
2023-05-23T00:50:48.443Z,7.93
2023-05-23T00:53:16.995Z,7.63
2023-05-23T00:55:45.327Z,6.90
2023-05-23T00:58:13.370Z,8.07
2023-05-23T01:00:40.678Z,6.70
2023-05-23T01:03:08.117Z,7.27
2023-05-23T01:05:35.852Z,8.70
2023-05-23T01:08:03.423Z,7.07
2023-05-23T01:10:31.883Z,7.97
2023-05-23T01:12:59.275Z,7.37
2023-05-23T01:15:30.064Z,7.60
2023-05-23T01:18:00.739Z,7.40
2023-05-23T01:20:33.588Z,8.70
2023-05-23T01:23:11.989Z,10.50
2023-05-23T01:25:59.614Z,7.57
2023-05-23T01:28:38.339Z,8.13
2023-05-23T01:31:07.941Z,9.73
2023-05-23T01:33:36.327Z,7.90
2023-05-23T01:36:03.972Z,9.83
2023-05-23T01:38:31.304Z,9.23
2023-05-23T01:40:58.743Z,8.60
2023-05-23T01:43:26.507Z,7.83
2023-05-23T01:45:55.065Z,8.70
2023-05-23T01:48:23.075Z,9.63
2023-05-23T01:50:50.794Z,8.33
2023-05-23T01:53:19.453Z,7.13
2023-05-23T01:55:47.772Z,9.03
2023-05-23T01:58:15.365Z,7.87
2023-05-23T02:00:42.675Z,8.60
2023-05-23T02:03:11.747Z,8.47
2023-05-23T02:05:39.358Z,6.87
2023-05-23T02:08:07.501Z,7.47
2023-05-23T02:10:35.104Z,7.77
2023-05-23T02:13:02.363Z,7.70
2023-05-23T02:15:30.138Z,6.63
2023-05-23T02:17:58.786Z,7.27
2023-05-23T02:20:27.154Z,7.90
2023-05-23T02:22:54.394Z,7.60
2023-05-23T02:25:21.788Z,7.80
2023-05-23T02:27:49.100Z,7.07
2023-05-23T02:30:16.863Z,10.47
2023-05-23T02:32:44.401Z,7.13
2023-05-23T02:35:12.620Z,8.03
2023-05-23T02:37:39.895Z,7.60
2023-05-23T02:40:07.921Z,7.17
2023-05-23T02:42:36.602Z,7.20
2023-05-23T02:45:04.365Z,7.23
2023-05-23T02:47:31.470Z,7.97
2023-05-23T02:49:58.918Z,8.10
2023-05-23T02:52:26.032Z,6.30
2023-05-23T02:54:54.096Z,7.83
2023-05-23T02:57:21.371Z,7.10
2023-05-23T02:59:48.685Z,6.30
2023-05-23T03:02:15.782Z,8.47
2023-05-23T03:04:43.012Z,7.00
2023-05-23T03:07:17.219Z,6.83
2023-05-23T03:09:54.396Z,7.07
2023-05-23T03:12:21.320Z,6.23
2023-05-23T03:14:48.726Z,6.80
2023-05-23T03:17:16.206Z,6.37
2023-05-23T03:19:43.710Z,6.13
2023-05-23T03:22:11.064Z,6.20
2023-05-23T03:24:38.314Z,6.13
2023-05-23T03:27:05.771Z,6.63
2023-05-23T03:29:33.243Z,7.93
2023-05-23T03:32:00.639Z,6.50
2023-05-23T03:34:28.206Z,6.73
2023-05-23T03:36:56.010Z,6.80
2023-05-23T03:39:23.388Z,6.57
2023-05-23T03:41:51.178Z,7.17
2023-05-23T03:44:18.638Z,6.33
2023-05-23T03:46:45.907Z,6.00
2023-05-23T03:49:13.257Z,6.93
2023-05-23T03:51:40.979Z,6.90
2023-05-23T03:54:08.299Z,7.00
2023-05-23T03:56:35.809Z,7.33
2023-05-23T03:59:04.443Z,6.63
2023-05-23T04:01:31.761Z,7.07
2023-05-23T04:04:00.408Z,8.30
2023-05-23T04:06:31.403Z,7.10
2023-05-23T04:08:58.732Z,6.63
2023-05-23T04:11:26.496Z,6.97
2023-05-23T04:13:54.399Z,6.73
2023-05-23T04:16:23.933Z,6.07
2023-05-23T04:18:51.969Z,7.23
2023-05-23T04:21:19.424Z,8.60
2023-05-23T04:24:01.251Z,7.43
2023-05-23T04:26:28.938Z,15.40
2023-05-23T04:28:56.487Z,37.77
2023-05-23T04:31:23.889Z,42.90
2023-05-23T04:33:52.525Z,11.57
2023-05-23T04:36:23.587Z,8.60
2023-05-23T04:38:54.069Z,8.43
2023-05-23T04:41:23.905Z,7.57
2023-05-23T04:43:58.461Z,8.57
2023-05-23T04:46:28.936Z,7.63
2023-05-23T04:49:13.163Z,8.90
2023-05-23T04:51:40.642Z,7.20
2023-05-23T04:54:34.083Z,8.93
2023-05-23T04:57:04.900Z,7.47
2023-05-23T04:59:32.554Z,8.20
2023-05-23T05:02:00.498Z,7.80
2023-05-23T05:04:28.127Z,7.67
2023-05-23T05:06:55.772Z,8.37
2023-05-23T05:09:23.045Z,9.03
2023-05-23T05:11:51.032Z,12.30
2023-05-23T05:14:19.693Z,16.73
2023-05-23T05:16:47.894Z,8.10
2023-05-23T05:19:16.866Z,8.27
2023-05-23T05:21:43.835Z,7.37
2023-05-23T05:24:12.446Z,7.77
2023-05-23T05:26:39.714Z,8.37
2023-05-23T05:29:07.623Z,8.43
2023-05-23T05:31:36.012Z,8.40
2023-05-23T05:34:03.472Z,8.67
2023-05-23T05:36:32.483Z,8.17
2023-05-23T05:38:59.921Z,7.43
2023-05-23T05:41:27.266Z,9.67
2023-05-23T05:43:54.868Z,9.27
2023-05-23T05:46:22.380Z,8.57
2023-05-23T05:48:50.728Z,7.60
2023-05-23T05:51:19.150Z,9.63
2023-05-23T05:53:47.023Z,9.03
2023-05-23T05:56:15.052Z,10.73
2023-05-23T05:58:42.382Z,18.07
2023-05-23T06:01:12.928Z,10.73
2023-05-23T06:03:40.238Z,10.77
2023-05-23T06:06:09.023Z,10.73
2023-05-23T06:08:39.030Z,10.30
2023-05-23T06:11:06.627Z,10.53
2023-05-23T06:13:33.938Z,12.00
2023-05-23T06:16:01.307Z,12.97
2023-05-23T06:18:29.566Z,14.83
2023-05-23T06:20:57.056Z,14.80
2023-05-23T06:23:24.551Z,14.33
2023-05-23T06:25:52.623Z,14.50
2023-05-23T06:28:19.871Z,15.07
2023-05-23T06:30:47.155Z,15.87
2023-05-23T06:33:14.394Z,15.43
2023-05-23T06:35:42.906Z,15.27
2023-05-23T06:38:10.153Z,14.47
2023-05-23T06:40:37.395Z,15.83
2023-05-23T06:43:04.665Z,16.00
2023-05-23T06:45:40.148Z,15.87
2023-05-23T06:48:07.530Z,14.67
2023-05-23T06:50:36.980Z,14.83
2023-05-23T06:53:05.034Z,14.13
2023-05-23T06:55:34.327Z,14.50
2023-05-23T06:58:04.113Z,14.90
2023-05-23T07:00:32.033Z,13.70
2023-05-23T07:03:09.918Z,12.90
2023-05-23T07:05:40.847Z,13.70
2023-05-23T07:08:13.192Z,13.43
2023-05-23T07:10:46.213Z,12.70
2023-05-23T07:13:29.627Z,14.30
2023-05-23T07:15:57.728Z,12.40
2023-05-23T07:18:25.607Z,13.63
2023-05-23T07:20:53.360Z,13.33
2023-05-23T07:23:23.621Z,12.60
2023-05-23T07:26:02.079Z,11.80
2023-05-23T07:28:59.809Z,11.07
2023-05-23T07:31:28.221Z,11.57
2023-05-23T07:33:58.565Z,10.77
2023-05-23T07:36:34.179Z,10.90
2023-05-23T07:39:02.285Z,10.27
2023-05-23T07:41:30.003Z,11.47
2023-05-23T07:43:57.287Z,11.40
2023-05-23T07:46:24.612Z,9.80
2023-05-23T07:48:51.932Z,9.20
2023-05-23T07:51:21.367Z,9.83
2023-05-23T07:53:50.053Z,8.83
2023-05-23T07:56:19.128Z,9.43
2023-05-23T07:58:46.748Z,9.20
2023-05-23T08:01:14.124Z,9.30
2023-05-23T08:03:57.275Z,9.37
2023-05-23T08:06:32.501Z,8.97
2023-05-23T08:09:02.746Z,8.43
2023-05-23T08:11:32.009Z,9.90
2023-05-23T08:14:01.469Z,8.97
2023-05-23T08:16:38.251Z,9.63
2023-05-23T08:19:11.120Z,8.77
2023-05-23T08:21:39.182Z,8.57
2023-05-23T08:24:06.578Z,8.90
2023-05-23T08:26:36.125Z,8.83
2023-05-23T08:29:05.620Z,10.30
2023-05-23T08:34:19.303Z,8.13
2023-05-23T08:36:48.297Z,9.23
2023-05-23T08:39:20.434Z,8.97
2023-05-23T08:42:14.120Z,9.13
2023-05-23T08:45:00.691Z,9.63
2023-05-23T08:47:29.358Z,9.73
2023-05-23T08:50:02.342Z,9.10
2023-05-23T08:52:30.908Z,8.90
2023-05-23T08:55:00.611Z,9.43
2023-05-23T08:57:30.882Z,9.40
2023-05-23T09:00:11.025Z,9.30
2023-05-23T09:02:39.736Z,8.10
2023-05-23T09:05:20.241Z,8.47
2023-05-23T09:07:49.424Z,8.33
2023-05-23T09:10:18.435Z,8.23
2023-05-23T09:12:45.867Z,8.73
2023-05-23T09:15:13.528Z,8.87
2023-05-23T09:17:41.500Z,10.63
2023-05-23T09:20:14.339Z,11.10
2023-05-23T09:22:51.233Z,10.67
2023-05-23T09:25:19.514Z,11.43
2023-05-23T09:27:48.476Z,13.27
2023-05-23T09:30:18.990Z,12.73
2023-05-23T09:33:00.725Z,14.37
2023-05-23T09:35:31.046Z,16.13
2023-05-23T09:38:01.976Z,15.27
2023-05-23T09:40:34.621Z,15.57
2023-05-23T09:43:05.377Z,19.13
2023-05-23T09:45:33.717Z,19.43
2023-05-23T09:48:02.599Z,19.70
2023-05-23T09:50:33.479Z,20.77
2023-05-23T09:53:01.791Z,18.53
2023-05-23T09:55:29.275Z,20.17
2023-05-23T09:57:58.097Z,21.87
2023-05-23T10:00:26.065Z,22.20
2023-05-23T10:02:54.052Z,20.53
2023-05-23T10:05:39.012Z,18.40
2023-05-23T10:08:09.159Z,20.87
2023-05-23T10:10:40.265Z,21.63
2023-05-23T10:13:07.980Z,18.53
2023-05-23T10:15:38.406Z,20.50
2023-05-23T10:18:12.769Z,17.80
2023-05-23T10:20:41.186Z,16.93
2023-05-23T10:23:08.717Z,15.53
2023-05-23T10:25:37.268Z,12.30
2023-05-23T10:28:05.669Z,11.00
2023-05-23T10:30:33.383Z,12.93
2023-05-23T10:33:01.129Z,10.23
2023-05-23T10:35:40.473Z,8.90
2023-05-23T10:38:20.125Z,7.43
2023-05-23T10:40:51.818Z,8.40
2023-05-23T10:43:27.904Z,7.90
2023-05-23T10:45:55.497Z,7.80
2023-05-23T10:48:28.950Z,8.27
2023-05-23T10:51:06.484Z,9.17
2023-05-23T10:53:36.225Z,9.37
2023-05-23T10:56:06.226Z,6.57
2023-05-23T10:58:33.738Z,6.73
2023-05-23T11:01:02.433Z,6.50
2023-05-23T11:03:36.237Z,6.90
2023-05-23T11:06:04.354Z,7.27
2023-05-23T11:08:46.877Z,6.30
2023-05-23T11:11:15.442Z,6.77
2023-05-23T11:13:55.452Z,7.10
2023-05-23T11:16:31.941Z,7.13
2023-05-23T11:19:18.383Z,7.50
2023-05-23T11:21:46.751Z,8.53
2023-05-23T11:24:13.979Z,7.77
2023-05-23T11:26:41.304Z,7.67
2023-05-23T11:29:11.725Z,8.00
2023-05-23T11:31:40.748Z,7.07
2023-05-23T11:34:08.159Z,6.83
2023-05-23T11:36:36.002Z,7.10
2023-05-23T11:39:04.477Z,8.30
2023-05-23T11:41:33.499Z,7.60
2023-05-23T11:44:01.659Z,7.43
2023-05-23T11:46:29.055Z,6.90
2023-05-23T11:48:56.956Z,6.27
2023-05-23T11:51:24.267Z,6.83
2023-05-23T11:53:51.613Z,6.67
2023-05-23T11:56:18.864Z,6.77
2023-05-23T11:58:46.279Z,8.47
2023-05-23T12:01:14.165Z,7.70
2023-05-23T12:03:48.289Z,8.37
2023-05-23T12:06:16.791Z,7.37
2023-05-23T12:08:44.061Z,9.30
2023-05-23T12:11:12.126Z,7.40
2023-05-23T12:13:42.190Z,7.63
2023-05-23T12:16:09.821Z,7.13
2023-05-23T12:18:38.436Z,6.63
2023-05-23T12:21:08.353Z,7.43
2023-05-23T12:23:36.416Z,6.80
2023-05-23T12:26:07.906Z,7.90
2023-05-23T12:28:39.171Z,7.87
2023-05-23T12:31:33.028Z,7.57
2023-05-23T12:34:00.612Z,7.93
2023-05-23T12:36:32.114Z,8.30
2023-05-23T12:39:06.125Z,7.57
2023-05-23T12:41:34.416Z,7.93
2023-05-23T12:44:03.595Z,7.80
2023-05-23T12:46:30.935Z,8.30
2023-05-23T12:48:58.290Z,9.33
2023-05-23T12:51:25.563Z,8.80
2023-05-23T12:53:52.996Z,6.87
2023-05-23T12:56:22.411Z,6.67
2023-05-23T12:58:49.940Z,4.60
2023-05-23T13:01:17.221Z,4.73
2023-05-23T13:03:44.647Z,5.63
2023-05-23T13:06:12.106Z,4.30
2023-05-23T13:08:39.586Z,4.30
2023-05-23T13:11:06.934Z,4.07
2023-05-23T13:13:34.233Z,4.30
2023-05-23T13:16:01.692Z,4.47
2023-05-23T13:18:29.297Z,4.00
2023-05-23T13:20:56.759Z,5.17
2023-05-23T13:23:25.750Z,4.10
2023-05-23T13:25:53.759Z,4.43
2023-05-23T13:28:21.147Z,4.43
2023-05-23T13:30:48.763Z,4.17
2023-05-23T13:33:16.372Z,4.60
2023-05-23T13:35:44.344Z,4.27
2023-05-23T13:38:12.723Z,5.07
2023-05-23T13:40:40.156Z,6.67
2023-05-23T13:43:07.613Z,6.83
2023-05-23T13:45:34.888Z,7.40
2023-05-23T13:48:02.481Z,6.27
2023-05-23T13:50:29.875Z,6.07
2023-05-23T13:52:57.596Z,5.73
2023-05-23T13:55:24.834Z,6.17
2023-05-23T13:57:52.084Z,6.23
2023-05-23T14:00:19.511Z,7.43
2023-05-23T14:02:46.899Z,5.03
2023-05-23T14:05:15.507Z,5.87
2023-05-23T14:07:47.650Z,6.60
2023-05-23T14:10:17.500Z,7.27
2023-05-23T14:12:44.958Z,5.83
2023-05-23T14:15:13.055Z,5.93
2023-05-23T14:17:40.729Z,4.10
2023-05-23T14:20:09.127Z,5.80
2023-05-23T14:22:36.595Z,5.93
2023-05-23T14:25:03.931Z,4.80
2023-05-23T14:27:31.218Z,4.70
2023-05-23T14:29:58.524Z,4.77
2023-05-23T14:32:25.873Z,3.90
2023-05-23T14:34:53.139Z,3.57
2023-05-23T14:37:20.418Z,2.73
2023-05-23T14:39:47.688Z,2.73
2023-05-23T14:42:14.963Z,2.93
2023-05-23T14:44:42.495Z,2.60
2023-05-23T14:47:09.819Z,3.30
2023-05-23T14:49:37.127Z,3.63
2023-05-23T14:52:04.516Z,5.07
2023-05-23T14:54:31.850Z,3.27
2023-05-23T14:56:59.099Z,3.67
2023-05-23T14:59:26.480Z,3.80
2023-05-23T15:01:53.902Z,3.23
2023-05-23T15:04:21.375Z,3.77
2023-05-23T15:06:50.713Z,4.00
2023-05-23T15:09:18.279Z,4.17
2023-05-23T15:11:46.996Z,4.00
2023-05-23T15:14:14.284Z,4.50
2023-05-23T15:16:44.418Z,3.57
2023-05-23T15:19:11.968Z,4.67
2023-05-23T15:21:40.665Z,4.07
2023-05-23T15:24:11.606Z,3.80
2023-05-23T15:26:38.878Z,4.63
2023-05-23T15:29:06.594Z,4.00
2023-05-23T15:31:34.064Z,4.23
2023-05-23T15:34:01.700Z,4.43
2023-05-23T15:36:29.066Z,4.53
2023-05-23T15:38:56.420Z,4.40
2023-05-23T15:41:23.790Z,4.97
2023-05-23T15:43:51.180Z,4.37
2023-05-23T15:46:18.460Z,3.70
2023-05-23T15:48:45.855Z,3.93
2023-05-23T15:51:13.355Z,3.73
2023-05-23T15:53:58.969Z,3.57
2023-05-23T15:56:29.131Z,4.17
2023-05-23T15:58:56.513Z,3.70
2023-05-23T16:01:23.912Z,3.67
2023-05-23T16:03:51.275Z,3.00
2023-05-23T16:06:18.599Z,3.20
2023-05-23T16:08:45.908Z,3.27
2023-05-23T16:11:13.265Z,3.20
2023-05-23T16:13:40.551Z,2.77
2023-05-23T16:16:07.932Z,2.67
2023-05-23T16:18:35.430Z,3.20
2023-05-23T16:21:02.783Z,3.07
2023-05-23T16:23:30.039Z,2.80
2023-05-23T16:25:57.359Z,3.37
2023-05-23T16:28:24.770Z,3.30
2023-05-23T16:30:52.196Z,3.47
2023-05-23T16:33:19.608Z,3.80
2023-05-23T16:35:46.922Z,4.17
2023-05-23T16:38:14.524Z,3.87
2023-05-23T16:40:43.651Z,3.87
2023-05-23T16:43:11.144Z,3.80
2023-05-23T16:45:41.058Z,4.03
2023-05-23T16:48:09.416Z,3.73
2023-05-23T16:50:36.790Z,4.10
2023-05-23T16:53:04.372Z,5.57
2023-05-23T16:55:31.702Z,4.73
2023-05-23T16:57:59.058Z,4.20
2023-05-23T17:00:27.269Z,4.20
2023-05-23T17:02:54.728Z,4.27
2023-05-23T17:05:22.530Z,4.07
2023-05-23T17:07:49.788Z,3.93
2023-05-23T17:10:19.445Z,4.03
2023-05-23T17:12:47.508Z,4.43
2023-05-23T17:15:14.747Z,3.73
2023-05-23T17:17:42.302Z,3.70
2023-05-23T17:20:10.482Z,3.73
2023-05-23T17:22:38.326Z,3.37
2023-05-23T17:25:06.570Z,3.80
2023-05-23T17:27:34.134Z,3.90
2023-05-23T17:30:04.568Z,4.30
2023-05-23T17:32:32.289Z,3.63
2023-05-23T17:34:59.668Z,3.50
2023-05-23T17:37:27.013Z,3.80
2023-05-23T17:39:57.412Z,3.20
2023-05-23T17:42:25.963Z,3.53
2023-05-23T17:44:53.280Z,3.30
2023-05-23T17:47:21.365Z,3.50
2023-05-23T17:49:48.645Z,3.87
2023-05-23T17:52:16.571Z,2.97
2023-05-23T17:54:43.812Z,2.63
2023-05-23T17:57:11.432Z,3.10
2023-05-23T17:59:38.646Z,3.00
2023-05-23T18:02:06.426Z,3.63
2023-05-23T18:04:33.802Z,2.30
2023-05-23T18:07:01.208Z,2.63
2023-05-23T18:09:28.616Z,2.87
2023-05-23T18:11:56.270Z,2.63
2023-05-23T18:14:23.896Z,3.37
2023-05-23T18:16:51.258Z,2.60
2023-05-23T18:19:18.671Z,2.60
2023-05-23T18:21:45.902Z,2.33
2023-05-23T18:24:13.394Z,3.43
2023-05-23T18:26:43.025Z,3.67
2023-05-23T18:29:10.533Z,3.03
2023-05-23T18:31:37.890Z,3.43
2023-05-23T18:34:05.989Z,2.67
2023-05-23T18:36:33.393Z,3.17
2023-05-23T18:39:00.676Z,3.47
2023-05-23T18:41:28.048Z,4.40
2023-05-23T18:43:55.500Z,3.20
2023-05-23T18:46:24.112Z,3.50
2023-05-23T18:48:52.337Z,3.97
2023-05-23T18:51:19.644Z,5.40
2023-05-23T18:53:46.901Z,4.30
2023-05-23T18:56:14.183Z,4.33
2023-05-23T18:58:41.726Z,5.63
2023-05-23T19:01:09.073Z,4.90
2023-05-23T19:03:37.287Z,5.70
2023-05-23T19:06:05.279Z,5.43
2023-05-23T19:08:32.834Z,7.80
2023-05-23T19:11:00.651Z,6.70
2023-05-23T19:13:28.191Z,7.87
2023-05-23T19:15:56.088Z,10.10
2023-05-23T19:18:23.407Z,10.87
2023-05-23T19:20:54.578Z,11.20
2023-05-23T19:23:22.224Z,11.50
2023-05-23T19:25:49.498Z,11.00
2023-05-23T19:28:17.059Z,12.07
2023-05-23T19:30:44.523Z,10.83
2023-05-23T19:33:12.044Z,11.17
2023-05-23T19:35:39.391Z,13.73
2023-05-23T19:38:06.712Z,11.83
2023-05-23T19:40:34.028Z,13.00
2023-05-23T19:43:01.593Z,11.83
2023-05-23T19:45:28.934Z,10.83
2023-05-23T19:47:58.018Z,11.70
2023-05-23T19:50:25.371Z,13.73
2023-05-23T19:52:52.726Z,12.60
2023-05-23T19:55:20.200Z,10.63
2023-05-23T19:57:47.757Z,10.20
2023-05-23T20:00:15.378Z,9.60
2023-05-23T20:02:43.052Z,10.20
2023-05-23T20:05:11.376Z,9.83
2023-05-23T20:07:39.896Z,10.57
2023-05-23T20:10:07.791Z,9.97
2023-05-23T20:12:35.673Z,11.03
2023-05-23T20:15:03.778Z,13.57
2023-05-23T20:17:31.415Z,12.60
2023-05-23T20:19:59.295Z,9.50
2023-05-23T20:22:26.818Z,9.33
2023-05-23T20:24:54.224Z,12.37
2023-05-23T20:27:21.992Z,11.57
2023-05-23T20:29:49.479Z,11.77
2023-05-23T20:32:16.829Z,9.83
2023-05-23T20:34:44.116Z,10.87
2023-05-23T20:37:13.899Z,9.93
2023-05-23T20:39:41.788Z,11.83
2023-05-23T20:42:15.095Z,10.60
2023-05-23T20:44:42.890Z,9.23
2023-05-23T20:47:13.036Z,9.07
2023-05-23T20:49:42.302Z,8.37
2023-05-23T20:52:10.308Z,10.07
2023-05-23T20:54:37.562Z,9.87
2023-05-23T20:57:05.314Z,10.73
2023-05-23T20:59:32.549Z,8.50
2023-05-23T21:01:59.914Z,10.87
2023-05-23T21:04:27.279Z,13.13
2023-05-23T21:06:54.748Z,9.50
2023-05-23T21:09:22.238Z,9.13
2023-05-23T21:11:49.653Z,12.17
2023-05-23T21:14:16.970Z,13.10
2023-05-23T21:16:44.258Z,9.73
2023-05-23T21:19:12.103Z,9.90
2023-05-23T21:21:39.528Z,6.07
2023-05-23T21:24:07.490Z,9.93
2023-05-23T21:26:35.118Z,7.23
2023-05-23T21:29:02.996Z,9.70
2023-05-23T21:31:41.078Z,8.23
2023-05-23T21:34:22.487Z,7.83
2023-05-23T21:36:51.756Z,10.00
2023-05-23T21:39:19.166Z,8.10
2023-05-23T21:41:46.628Z,8.17
2023-05-23T21:44:15.636Z,7.77
2023-05-23T21:46:43.041Z,6.90
2023-05-23T21:49:10.511Z,9.40
2023-05-23T21:51:38.075Z,8.10
2023-05-23T21:54:05.401Z,6.73
2023-05-23T21:56:32.986Z,8.17
2023-05-23T21:59:00.371Z,8.20
2023-05-23T22:01:27.803Z,8.40
2023-05-23T22:03:55.233Z,7.47
2023-05-23T22:06:22.555Z,8.27
2023-05-23T22:08:50.395Z,8.77
2023-05-23T22:11:17.708Z,6.23
2023-05-23T22:13:45.047Z,5.77
2023-05-23T22:16:12.345Z,5.70
2023-05-23T22:18:51.025Z,8.70
2023-05-23T22:21:19.351Z,7.50
2023-05-23T22:23:46.604Z,8.30
2023-05-23T22:26:14.044Z,7.00
2023-05-23T22:28:41.354Z,6.33
2023-05-23T22:31:10.438Z,6.70
2023-05-23T22:33:39.452Z,7.23
2023-05-23T22:36:07.039Z,5.07
2023-05-23T22:38:34.589Z,5.63
2023-05-23T22:41:01.961Z,7.97
2023-05-23T22:43:29.811Z,6.73
2023-05-23T22:45:57.815Z,6.47
2023-05-23T22:48:25.095Z,6.27
2023-05-23T22:50:54.771Z,7.13
2023-05-23T22:53:25.416Z,5.53
2023-05-23T22:55:52.745Z,6.47
2023-05-23T22:58:19.994Z,7.30
2023-05-23T23:00:48.099Z,6.10
2023-05-23T23:03:15.615Z,8.53
2023-05-23T23:05:42.989Z,4.90
2023-05-23T23:08:10.307Z,4.30
2023-05-23T23:10:37.622Z,3.77
2023-05-23T23:13:04.925Z,4.90
2023-05-23T23:15:33.937Z,6.80
2023-05-23T23:18:01.563Z,5.10
2023-05-23T23:20:29.226Z,6.70
2023-05-23T23:22:57.571Z,6.73
2023-05-23T23:25:25.037Z,6.00
2023-05-23T23:27:52.405Z,6.07
2023-05-23T23:30:19.697Z,7.83
2023-05-23T23:32:47.006Z,5.03
2023-05-23T23:35:14.804Z,8.23
2023-05-23T23:37:42.235Z,5.63
2023-05-23T23:40:09.918Z,7.27
2023-05-23T23:42:37.328Z,4.73
2023-05-23T23:45:05.069Z,6.63
2023-05-23T23:47:32.707Z,3.83
2023-05-23T23:50:00.344Z,5.27
2023-05-23T23:52:28.126Z,4.70
2023-05-23T23:54:55.857Z,4.33
2023-05-23T23:57:23.141Z,4.57
2023-05-23T23:59:50.468Z,3.63
